sensor_id;sensor_type;location;lat;lon;timestamp;P1;durP1;ratioP1;P2;durP2;ratioP2
14118;SDS011;7138;49.246;9.100;2024-01-30T00:01:28;9.50;;;5.75;;
14118;SDS011;7138;49.246;9.100;2024-01-30T00:03:54;8.40;;;5.35;;
14118;SDS011;7138;49.246;9.100;2024-01-30T00:06:20;10.27;;;5.43;;
14118;SDS011;7138;49.246;9.100;2024-01-30T00:08:46;11.05;;;5.20;;
14118;SDS011;7138;49.246;9.100;2024-01-30T00:11:13;10.30;;;5.82;;
14118;SDS011;7138;49.246;9.100;2024-01-30T00:13:39;9.32;;;5.55;;
14118;SDS011;7138;49.246;9.100;2024-01-30T00:16:06;10.48;;;6.03;;
14118;SDS011;7138;49.246;9.100;2024-01-30T00:18:33;10.57;;;6.07;;
14118;SDS011;7138;49.246;9.100;2024-01-30T00:20:59;10.20;;;5.70;;
14118;SDS011;7138;49.246;9.100;2024-01-30T00:23:25;9.65;;;5.82;;
14118;SDS011;7138;49.246;9.100;2024-01-30T00:25:50;12.00;;;5.60;;
14118;SDS011;7138;49.246;9.100;2024-01-30T00:28:16;11.50;;;6.05;;
14118;SDS011;7138;49.246;9.100;2024-01-30T00:30:42;11.63;;;6.63;;
14118;SDS011;7138;49.246;9.100;2024-01-30T00:33:09;11.32;;;6.28;;
14118;SDS011;7138;49.246;9.100;2024-01-30T00:35:36;9.25;;;6.07;;
14118;SDS011;7138;49.246;9.100;2024-01-30T00:38:02;10.45;;;6.40;;
14118;SDS011;7138;49.246;9.100;2024-01-30T00:40:28;11.57;;;6.55;;
14118;SDS011;7138;49.246;9.100;2024-01-30T00:42:54;11.77;;;6.22;;
14118;SDS011;7138;49.246;9.100;2024-01-30T00:45:20;10.40;;;5.93;;
14118;SDS011;7138;49.246;9.100;2024-01-30T00:47:45;10.80;;;6.30;;
14118;SDS011;7138;49.246;9.100;2024-01-30T00:50:11;10.27;;;6.07;;
14118;SDS011;7138;49.246;9.100;2024-01-30T00:52:38;10.55;;;5.90;;
14118;SDS011;7138;49.246;9.100;2024-01-30T00:55:06;10.23;;;5.60;;
14118;SDS011;7138;49.246;9.100;2024-01-30T00:57:32;10.77;;;5.82;;
14118;SDS011;7138;49.246;9.100;2024-01-30T00:59:58;9.25;;;5.78;;
14118;SDS011;7138;49.246;9.100;2024-01-30T01:02:24;9.88;;;6.35;;
14118;SDS011;7138;49.246;9.100;2024-01-30T01:04:49;9.95;;;6.15;;
14118;SDS011;7138;49.246;9.100;2024-01-30T01:07:15;12.30;;;5.78;;
14118;SDS011;7138;49.246;9.100;2024-01-30T01:09:42;11.23;;;5.85;;
14118;SDS011;7138;49.246;9.100;2024-01-30T01:12:08;12.18;;;6.00;;
14118;SDS011;7138;49.246;9.100;2024-01-30T01:14:34;10.00;;;5.88;;
14118;SDS011;7138;49.246;9.100;2024-01-30T01:17:01;11.25;;;6.03;;
14118;SDS011;7138;49.246;9.100;2024-01-30T01:19:27;11.35;;;6.57;;
14118;SDS011;7138;49.246;9.100;2024-01-30T01:21:53;10.18;;;5.93;;
14118;SDS011;7138;49.246;9.100;2024-01-30T01:24:18;11.60;;;6.10;;
14118;SDS011;7138;49.246;9.100;2024-01-30T01:26:45;11.23;;;6.00;;
14118;SDS011;7138;49.246;9.100;2024-01-30T01:29:12;11.68;;;6.65;;
14118;SDS011;7138;49.246;9.100;2024-01-30T01:31:38;11.48;;;6.47;;
14118;SDS011;7138;49.246;9.100;2024-01-30T01:34:08;11.25;;;6.35;;
14118;SDS011;7138;49.246;9.100;2024-01-30T01:36:34;10.70;;;6.25;;
14118;SDS011;7138;49.246;9.100;2024-01-30T01:39:00;11.05;;;5.97;;
14118;SDS011;7138;49.246;9.100;2024-01-30T01:41:29;11.23;;;6.78;;
14118;SDS011;7138;49.246;9.100;2024-01-30T01:46:23;9.95;;;6.15;;
14118;SDS011;7138;49.246;9.100;2024-01-30T01:48:51;10.05;;;5.90;;
14118;SDS011;7138;49.246;9.100;2024-01-30T01:51:17;13.57;;;6.13;;
14118;SDS011;7138;49.246;9.100;2024-01-30T01:53:43;10.07;;;5.93;;
14118;SDS011;7138;49.246;9.100;2024-01-30T01:56:10;11.10;;;6.63;;
14118;SDS011;7138;49.246;9.100;2024-01-30T01:58:36;10.35;;;6.18;;
14118;SDS011;7138;49.246;9.100;2024-01-30T02:01:04;11.52;;;6.80;;
14118;SDS011;7138;49.246;9.100;2024-01-30T02:03:30;10.52;;;6.30;;
14118;SDS011;7138;49.246;9.100;2024-01-30T02:05:57;9.80;;;5.78;;
14118;SDS011;7138;49.246;9.100;2024-01-30T02:08:23;11.07;;;6.07;;
14118;SDS011;7138;49.246;9.100;2024-01-30T02:10:49;10.77;;;6.22;;
14118;SDS011;7138;49.246;9.100;2024-01-30T02:13:16;10.60;;;6.53;;
14118;SDS011;7138;49.246;9.100;2024-01-30T02:15:41;10.93;;;6.22;;
14118;SDS011;7138;49.246;9.100;2024-01-30T02:18:09;9.70;;;6.10;;
14118;SDS011;7138;49.246;9.100;2024-01-30T02:20:34;10.75;;;5.80;;
14118;SDS011;7138;49.246;9.100;2024-01-30T02:23:04;10.05;;;6.07;;
14118;SDS011;7138;49.246;9.100;2024-01-30T02:25:30;12.02;;;6.25;;
14118;SDS011;7138;49.246;9.100;2024-01-30T02:27:58;11.57;;;6.03;;
14118;SDS011;7138;49.246;9.100;2024-01-30T02:30:24;9.32;;;5.63;;
14118;SDS011;7138;49.246;9.100;2024-01-30T02:32:50;11.27;;;6.00;;
14118;SDS011;7138;49.246;9.100;2024-01-30T02:35:15;11.13;;;6.13;;
14118;SDS011;7138;49.246;9.100;2024-01-30T02:37:41;13.48;;;6.13;;
14118;SDS011;7138;49.246;9.100;2024-01-30T02:40:08;12.68;;;6.93;;
14118;SDS011;7138;49.246;9.100;2024-01-30T02:42:34;9.88;;;6.22;;
14118;SDS011;7138;49.246;9.100;2024-01-30T02:45:00;9.57;;;5.95;;
14118;SDS011;7138;49.246;9.100;2024-01-30T02:47:26;10.40;;;6.53;;
14118;SDS011;7138;49.246;9.100;2024-01-30T02:49:52;11.75;;;6.20;;
14118;SDS011;7138;49.246;9.100;2024-01-30T02:52:18;10.63;;;6.28;;
14118;SDS011;7138;49.246;9.100;2024-01-30T02:54:44;10.75;;;6.35;;
14118;SDS011;7138;49.246;9.100;2024-01-30T02:57:11;12.02;;;6.85;;
14118;SDS011;7138;49.246;9.100;2024-01-30T02:59:37;10.23;;;6.22;;
14118;SDS011;7138;49.246;9.100;2024-01-30T03:02:03;11.15;;;6.18;;
14118;SDS011;7138;49.246;9.100;2024-01-30T03:04:29;10.82;;;6.13;;
14118;SDS011;7138;49.246;9.100;2024-01-30T03:06:55;13.30;;;6.78;;
14118;SDS011;7138;49.246;9.100;2024-01-30T03:09:21;12.77;;;7.03;;
14118;SDS011;7138;49.246;9.100;2024-01-30T03:11:47;9.55;;;6.30;;
14118;SDS011;7138;49.246;9.100;2024-01-30T03:14:14;10.95;;;6.57;;
14118;SDS011;7138;49.246;9.100;2024-01-30T03:16:40;11.70;;;6.50;;
14118;SDS011;7138;49.246;9.100;2024-01-30T03:19:06;11.63;;;6.38;;
14118;SDS011;7138;49.246;9.100;2024-01-30T03:21:35;10.43;;;6.47;;
14118;SDS011;7138;49.246;9.100;2024-01-30T03:24:01;10.98;;;6.55;;
14118;SDS011;7138;49.246;9.100;2024-01-30T03:26:27;13.10;;;6.45;;
14118;SDS011;7138;49.246;9.100;2024-01-30T03:28:53;11.43;;;6.97;;
14118;SDS011;7138;49.246;9.100;2024-01-30T03:31:20;11.93;;;6.20;;
14118;SDS011;7138;49.246;9.100;2024-01-30T03:33:46;14.35;;;6.93;;
14118;SDS011;7138;49.246;9.100;2024-01-30T03:36:11;11.93;;;6.95;;
14118;SDS011;7138;49.246;9.100;2024-01-30T03:38:37;10.35;;;6.53;;
14118;SDS011;7138;49.246;9.100;2024-01-30T03:41:07;11.05;;;6.78;;
14118;SDS011;7138;49.246;9.100;2024-01-30T03:43:32;9.80;;;6.68;;
14118;SDS011;7138;49.246;9.100;2024-01-30T03:45:59;13.88;;;6.72;;
14118;SDS011;7138;49.246;9.100;2024-01-30T03:48:27;9.73;;;5.72;;
14118;SDS011;7138;49.246;9.100;2024-01-30T03:50:53;10.15;;;6.40;;
14118;SDS011;7138;49.246;9.100;2024-01-30T03:53:19;10.77;;;6.70;;
14118;SDS011;7138;49.246;9.100;2024-01-30T03:55:45;11.93;;;6.72;;
14118;SDS011;7138;49.246;9.100;2024-01-30T03:58:11;10.77;;;6.65;;
14118;SDS011;7138;49.246;9.100;2024-01-30T04:00:37;9.73;;;6.50;;
14118;SDS011;7138;49.246;9.100;2024-01-30T04:03:03;10.98;;;6.88;;
14118;SDS011;7138;49.246;9.100;2024-01-30T04:05:31;10.45;;;6.68;;
14118;SDS011;7138;49.246;9.100;2024-01-30T04:07:57;12.65;;;6.65;;
14118;SDS011;7138;49.246;9.100;2024-01-30T04:10:24;11.73;;;7.47;;
14118;SDS011;7138;49.246;9.100;2024-01-30T04:12:50;12.40;;;7.03;;
14118;SDS011;7138;49.246;9.100;2024-01-30T04:15:16;12.95;;;6.82;;
14118;SDS011;7138;49.246;9.100;2024-01-30T04:17:42;12.18;;;6.82;;
14118;SDS011;7138;49.246;9.100;2024-01-30T04:20:12;10.70;;;5.97;;
14118;SDS011;7138;49.246;9.100;2024-01-30T04:22:41;12.70;;;6.53;;
14118;SDS011;7138;49.246;9.100;2024-01-30T04:25:08;10.32;;;6.72;;
14118;SDS011;7138;49.246;9.100;2024-01-30T04:27:34;11.60;;;6.45;;
14118;SDS011;7138;49.246;9.100;2024-01-30T04:29:59;11.38;;;6.82;;
14118;SDS011;7138;49.246;9.100;2024-01-30T04:32:25;11.50;;;6.63;;
14118;SDS011;7138;49.246;9.100;2024-01-30T04:34:51;10.23;;;6.10;;
14118;SDS011;7138;49.246;9.100;2024-01-30T04:37:17;12.73;;;6.57;;
14118;SDS011;7138;49.246;9.100;2024-01-30T04:39:44;12.90;;;6.80;;
14118;SDS011;7138;49.246;9.100;2024-01-30T04:42:10;12.63;;;7.18;;
14118;SDS011;7138;49.246;9.100;2024-01-30T04:44:35;14.07;;;6.63;;
14118;SDS011;7138;49.246;9.100;2024-01-30T04:47:01;14.55;;;7.75;;
14118;SDS011;7138;49.246;9.100;2024-01-30T04:49:28;13.18;;;7.07;;
14118;SDS011;7138;49.246;9.100;2024-01-30T04:51:54;12.40;;;7.03;;
14118;SDS011;7138;49.246;9.100;2024-01-30T04:54:20;12.50;;;7.57;;
14118;SDS011;7138;49.246;9.100;2024-01-30T04:56:48;11.70;;;7.80;;
14118;SDS011;7138;49.246;9.100;2024-01-30T04:59:13;10.73;;;6.88;;
14118;SDS011;7138;49.246;9.100;2024-01-30T05:01:39;12.25;;;6.80;;
14118;SDS011;7138;49.246;9.100;2024-01-30T05:04:07;10.75;;;7.45;;
14118;SDS011;7138;49.246;9.100;2024-01-30T05:06:33;11.82;;;7.15;;
14118;SDS011;7138;49.246;9.100;2024-01-30T05:08:59;12.98;;;7.53;;
14118;SDS011;7138;49.246;9.100;2024-01-30T05:11:24;10.32;;;6.93;;
14118;SDS011;7138;49.246;9.100;2024-01-30T05:13:52;12.50;;;7.32;;
14118;SDS011;7138;49.246;9.100;2024-01-30T05:16:18;11.88;;;7.07;;
14118;SDS011;7138;49.246;9.100;2024-01-30T05:18:44;13.45;;;7.18;;
14118;SDS011;7138;49.246;9.100;2024-01-30T05:21:10;12.93;;;6.65;;
14118;SDS011;7138;49.246;9.100;2024-01-30T05:23:36;12.52;;;7.00;;
14118;SDS011;7138;49.246;9.100;2024-01-30T05:26:02;11.88;;;7.30;;
14118;SDS011;7138;49.246;9.100;2024-01-30T05:28:28;13.48;;;7.75;;
14118;SDS011;7138;49.246;9.100;2024-01-30T05:30:56;11.18;;;7.00;;
14118;SDS011;7138;49.246;9.100;2024-01-30T05:33:22;11.35;;;7.50;;
14118;SDS011;7138;49.246;9.100;2024-01-30T05:35:48;11.70;;;7.30;;
14118;SDS011;7138;49.246;9.100;2024-01-30T05:38:14;11.80;;;7.13;;
14118;SDS011;7138;49.246;9.100;2024-01-30T05:40:41;12.43;;;6.78;;
14118;SDS011;7138;49.246;9.100;2024-01-30T05:43:07;12.68;;;7.60;;
14118;SDS011;7138;49.246;9.100;2024-01-30T05:45:33;12.95;;;7.32;;
14118;SDS011;7138;49.246;9.100;2024-01-30T05:48:01;11.85;;;7.65;;
14118;SDS011;7138;49.246;9.100;2024-01-30T05:50:27;14.38;;;8.00;;
14118;SDS011;7138;49.246;9.100;2024-01-30T05:52:53;12.38;;;7.22;;
14118;SDS011;7138;49.246;9.100;2024-01-30T05:55:19;11.38;;;6.80;;
14118;SDS011;7138;49.246;9.100;2024-01-30T05:57:45;12.52;;;7.00;;
14118;SDS011;7138;49.246;9.100;2024-01-30T06:00:11;11.38;;;7.20;;
14118;SDS011;7138;49.246;9.100;2024-01-30T06:02:37;14.25;;;7.38;;
14118;SDS011;7138;49.246;9.100;2024-01-30T06:05:05;11.25;;;6.90;;
14118;SDS011;7138;49.246;9.100;2024-01-30T06:07:31;10.80;;;6.93;;
14118;SDS011;7138;49.246;9.100;2024-01-30T06:09:57;13.20;;;6.95;;
14118;SDS011;7138;49.246;9.100;2024-01-30T06:12:27;13.48;;;8.02;;
14118;SDS011;7138;49.246;9.100;2024-01-30T06:14:53;13.57;;;7.40;;
14118;SDS011;7138;49.246;9.100;2024-01-30T06:17:21;12.15;;;7.30;;
14118;SDS011;7138;49.246;9.100;2024-01-30T06:19:47;11.23;;;6.63;;
14118;SDS011;7138;49.246;9.100;2024-01-30T06:22:15;13.45;;;7.47;;
14118;SDS011;7138;49.246;9.100;2024-01-30T06:24:41;11.85;;;6.80;;
14118;SDS011;7138;49.246;9.100;2024-01-30T06:27:09;13.10;;;7.50;;
14118;SDS011;7138;49.246;9.100;2024-01-30T06:29:36;11.32;;;6.97;;
14118;SDS011;7138;49.246;9.100;2024-01-30T06:32:01;12.48;;;7.63;;
14118;SDS011;7138;49.246;9.100;2024-01-30T06:34:28;12.38;;;7.15;;
14118;SDS011;7138;49.246;9.100;2024-01-30T06:36:54;11.57;;;7.30;;
14118;SDS011;7138;49.246;9.100;2024-01-30T06:39:21;12.82;;;7.25;;
14118;SDS011;7138;49.246;9.100;2024-01-30T06:41:48;13.07;;;7.53;;
14118;SDS011;7138;49.246;9.100;2024-01-30T06:44:14;13.38;;;7.68;;
14118;SDS011;7138;49.246;9.100;2024-01-30T06:46:40;12.32;;;7.60;;
14118;SDS011;7138;49.246;9.100;2024-01-30T06:49:06;13.05;;;7.97;;
14118;SDS011;7138;49.246;9.100;2024-01-30T06:51:32;10.93;;;7.18;;
14118;SDS011;7138;49.246;9.100;2024-01-30T06:53:57;11.23;;;7.60;;
14118;SDS011;7138;49.246;9.100;2024-01-30T06:56:25;12.77;;;7.30;;
14118;SDS011;7138;49.246;9.100;2024-01-30T06:58:51;14.15;;;7.85;;
14118;SDS011;7138;49.246;9.100;2024-01-30T07:01:17;13.23;;;7.32;;
14118;SDS011;7138;49.246;9.100;2024-01-30T07:03:42;12.50;;;7.00;;
14118;SDS011;7138;49.246;9.100;2024-01-30T07:06:09;11.88;;;7.40;;
14118;SDS011;7138;49.246;9.100;2024-01-30T07:08:38;10.75;;;7.32;;
14118;SDS011;7138;49.246;9.100;2024-01-30T07:11:04;12.38;;;7.60;;
14118;SDS011;7138;49.246;9.100;2024-01-30T07:13:31;10.80;;;7.18;;
14118;SDS011;7138;49.246;9.100;2024-01-30T07:15:59;12.88;;;7.75;;
14118;SDS011;7138;49.246;9.100;2024-01-30T07:18:25;12.25;;;7.45;;
14118;SDS011;7138;49.246;9.100;2024-01-30T07:20:50;12.95;;;8.23;;
14118;SDS011;7138;49.246;9.100;2024-01-30T07:23:16;12.02;;;7.45;;
14118;SDS011;7138;49.246;9.100;2024-01-30T07:25:42;10.95;;;7.50;;
14118;SDS011;7138;49.246;9.100;2024-01-30T07:28:09;12.73;;;8.25;;
14118;SDS011;7138;49.246;9.100;2024-01-30T07:30:37;13.60;;;7.60;;
14118;SDS011;7138;49.246;9.100;2024-01-30T07:33:03;14.35;;;7.78;;
14118;SDS011;7138;49.246;9.100;2024-01-30T07:35:30;12.00;;;8.02;;
14118;SDS011;7138;49.246;9.100;2024-01-30T07:37:55;13.15;;;7.78;;
14118;SDS011;7138;49.246;9.100;2024-01-30T07:40:22;12.05;;;7.38;;
14118;SDS011;7138;49.246;9.100;2024-01-30T07:42:49;12.93;;;8.05;;
14118;SDS011;7138;49.246;9.100;2024-01-30T07:45:15;12.98;;;8.43;;
14118;SDS011;7138;49.246;9.100;2024-01-30T07:47:42;13.10;;;8.23;;
14118;SDS011;7138;49.246;9.100;2024-01-30T07:50:08;14.68;;;8.82;;
14118;SDS011;7138;49.246;9.100;2024-01-30T07:52:35;14.75;;;8.15;;
14118;SDS011;7138;49.246;9.100;2024-01-30T07:55:02;14.48;;;8.38;;
14118;SDS011;7138;49.246;9.100;2024-01-30T07:57:29;13.38;;;9.30;;
14118;SDS011;7138;49.246;9.100;2024-01-30T07:59:55;12.30;;;8.15;;
14118;SDS011;7138;49.246;9.100;2024-01-30T08:02:22;14.18;;;9.02;;
14118;SDS011;7138;49.246;9.100;2024-01-30T08:04:49;12.95;;;8.38;;
14118;SDS011;7138;49.246;9.100;2024-01-30T08:07:15;16.02;;;8.85;;
14118;SDS011;7138;49.246;9.100;2024-01-30T08:09:42;12.25;;;8.23;;
14118;SDS011;7138;49.246;9.100;2024-01-30T08:12:08;12.95;;;8.55;;
14118;SDS011;7138;49.246;9.100;2024-01-30T08:14:34;12.20;;;7.80;;
14118;SDS011;7138;49.246;9.100;2024-01-30T08:17:00;11.98;;;8.45;;
14118;SDS011;7138;49.246;9.100;2024-01-30T08:19:25;11.75;;;7.57;;
14118;SDS011;7138;49.246;9.100;2024-01-30T08:21:53;11.52;;;7.63;;
14118;SDS011;7138;49.246;9.100;2024-01-30T08:24:18;11.25;;;7.78;;
14118;SDS011;7138;49.246;9.100;2024-01-30T08:26:45;15.18;;;7.82;;
14118;SDS011;7138;49.246;9.100;2024-01-30T08:29:11;14.57;;;8.57;;
14118;SDS011;7138;49.246;9.100;2024-01-30T08:31:37;12.40;;;7.63;;
14118;SDS011;7138;49.246;9.100;2024-01-30T08:34:02;14.13;;;8.40;;
14118;SDS011;7138;49.246;9.100;2024-01-30T08:36:28;14.15;;;8.45;;
14118;SDS011;7138;49.246;9.100;2024-01-30T08:38:56;13.60;;;8.52;;
14118;SDS011;7138;49.246;9.100;2024-01-30T08:41:21;18.88;;;8.75;;
14118;SDS011;7138;49.246;9.100;2024-01-30T08:43:47;13.68;;;8.38;;
14118;SDS011;7138;49.246;9.100;2024-01-30T08:46:16;12.02;;;7.57;;
14118;SDS011;7138;49.246;9.100;2024-01-30T08:48:43;13.18;;;8.75;;
14118;SDS011;7138;49.246;9.100;2024-01-30T08:51:09;12.65;;;8.07;;
14118;SDS011;7138;49.246;9.100;2024-01-30T08:53:35;11.13;;;7.35;;
14118;SDS011;7138;49.246;9.100;2024-01-30T08:56:03;11.82;;;7.97;;
14118;SDS011;7138;49.246;9.100;2024-01-30T08:58:31;13.13;;;8.35;;
14118;SDS011;7138;49.246;9.100;2024-01-30T09:00:56;12.25;;;8.30;;
14118;SDS011;7138;49.246;9.100;2024-01-30T09:03:22;14.70;;;7.40;;
14118;SDS011;7138;49.246;9.100;2024-01-30T09:05:49;12.75;;;7.13;;
14118;SDS011;7138;49.246;9.100;2024-01-30T09:08:14;13.70;;;8.00;;
14118;SDS011;7138;49.246;9.100;2024-01-30T09:10:40;12.32;;;8.30;;
14118;SDS011;7138;49.246;9.100;2024-01-30T09:13:07;14.07;;;8.85;;
14118;SDS011;7138;49.246;9.100;2024-01-30T09:15:33;12.80;;;8.77;;
14118;SDS011;7138;49.246;9.100;2024-01-30T09:18:00;12.50;;;8.40;;
14118;SDS011;7138;49.246;9.100;2024-01-30T09:20:26;11.70;;;7.95;;
14118;SDS011;7138;49.246;9.100;2024-01-30T09:22:51;14.38;;;8.05;;
14118;SDS011;7138;49.246;9.100;2024-01-30T09:25:17;10.98;;;7.28;;
14118;SDS011;7138;49.246;9.100;2024-01-30T09:27:43;13.60;;;7.80;;
14118;SDS011;7138;49.246;9.100;2024-01-30T09:30:11;14.07;;;8.00;;
14118;SDS011;7138;49.246;9.100;2024-01-30T09:32:39;12.63;;;8.30;;
14118;SDS011;7138;49.246;9.100;2024-01-30T09:35:05;21.02;;;9.55;;
14118;SDS011;7138;49.246;9.100;2024-01-30T09:37:31;15.27;;;8.82;;
14118;SDS011;7138;49.246;9.100;2024-01-30T09:39:57;11.85;;;7.75;;
14118;SDS011;7138;49.246;9.100;2024-01-30T09:42:26;10.90;;;7.13;;
14118;SDS011;7138;49.246;9.100;2024-01-30T09:44:59;16.17;;;7.53;;
14118;SDS011;7138;49.246;9.100;2024-01-30T09:47:27;15.82;;;8.90;;
14118;SDS011;7138;49.246;9.100;2024-01-30T09:49:56;14.32;;;8.20;;
14118;SDS011;7138;49.246;9.100;2024-01-30T09:52:23;21.33;;;8.50;;
14118;SDS011;7138;49.246;9.100;2024-01-30T09:54:50;14.23;;;9.02;;
14118;SDS011;7138;49.246;9.100;2024-01-30T09:57:18;12.65;;;7.60;;
14118;SDS011;7138;49.246;9.100;2024-01-30T09:59:43;13.70;;;9.23;;
14118;SDS011;7138;49.246;9.100;2024-01-30T10:02:09;13.80;;;8.90;;
14118;SDS011;7138;49.246;9.100;2024-01-30T10:04:36;15.50;;;8.70;;
14118;SDS011;7138;49.246;9.100;2024-01-30T10:07:02;13.52;;;9.52;;
14118;SDS011;7138;49.246;9.100;2024-01-30T10:09:31;15.43;;;9.40;;
14118;SDS011;7138;49.246;9.100;2024-01-30T10:11:58;15.95;;;9.32;;
14118;SDS011;7138;49.246;9.100;2024-01-30T10:14:24;13.98;;;8.90;;
14118;SDS011;7138;49.246;9.100;2024-01-30T10:16:50;14.85;;;9.90;;
14118;SDS011;7138;49.246;9.100;2024-01-30T10:19:16;13.20;;;9.65;;
14118;SDS011;7138;49.246;9.100;2024-01-30T10:21:43;13.82;;;8.68;;
14118;SDS011;7138;49.246;9.100;2024-01-30T10:24:11;15.00;;;9.27;;
14118;SDS011;7138;49.246;9.100;2024-01-30T10:26:38;14.45;;;8.98;;
14118;SDS011;7138;49.246;9.100;2024-01-30T10:29:04;12.52;;;8.35;;
14118;SDS011;7138;49.246;9.100;2024-01-30T10:31:30;15.55;;;9.65;;
14118;SDS011;7138;49.246;9.100;2024-01-30T10:33:56;13.85;;;8.70;;
14118;SDS011;7138;49.246;9.100;2024-01-30T10:36:23;14.30;;;8.70;;
14118;SDS011;7138;49.246;9.100;2024-01-30T10:38:55;13.38;;;8.98;;
14118;SDS011;7138;49.246;9.100;2024-01-30T10:41:26;14.77;;;8.75;;
14118;SDS011;7138;49.246;9.100;2024-01-30T10:43:54;12.85;;;8.27;;
14118;SDS011;7138;49.246;9.100;2024-01-30T10:46:34;13.07;;;8.52;;
14118;SDS011;7138;49.246;9.100;2024-01-30T10:49:03;12.50;;;8.27;;
14118;SDS011;7138;49.246;9.100;2024-01-30T10:51:31;11.38;;;8.13;;
14118;SDS011;7138;49.246;9.100;2024-01-30T10:54:00;14.20;;;8.30;;
14118;SDS011;7138;49.246;9.100;2024-01-30T10:56:28;13.32;;;8.13;;
14118;SDS011;7138;49.246;9.100;2024-01-30T10:58:57;9.37;;;6.07;;
14118;SDS011;7138;49.246;9.100;2024-01-30T11:01:23;13.27;;;8.18;;
14118;SDS011;7138;49.246;9.100;2024-01-30T11:03:50;12.35;;;8.10;;
14118;SDS011;7138;49.246;9.100;2024-01-30T11:06:18;11.07;;;7.78;;
14118;SDS011;7138;49.246;9.100;2024-01-30T11:08:47;12.18;;;7.97;;
14118;SDS011;7138;49.246;9.100;2024-01-30T11:11:47;12.88;;;7.93;;
14118;SDS011;7138;49.246;9.100;2024-01-30T11:14:14;15.85;;;9.82;;
14118;SDS011;7138;49.246;9.100;2024-01-30T11:16:40;14.43;;;9.32;;
14118;SDS011;7138;49.246;9.100;2024-01-30T11:19:10;14.55;;;9.23;;
14118;SDS011;7138;49.246;9.100;2024-01-30T11:21:41;15.90;;;9.20;;
14118;SDS011;7138;49.246;9.100;2024-01-30T11:24:08;12.30;;;9.07;;
14118;SDS011;7138;49.246;9.100;2024-01-30T11:26:34;13.30;;;8.88;;
14118;SDS011;7138;49.246;9.100;2024-01-30T11:29:02;13.30;;;9.07;;
14118;SDS011;7138;49.246;9.100;2024-01-30T11:31:29;15.82;;;9.68;;
14118;SDS011;7138;49.246;9.100;2024-01-30T11:33:56;13.05;;;9.25;;
14118;SDS011;7138;49.246;9.100;2024-01-30T11:36:23;13.93;;;9.43;;
14118;SDS011;7138;49.246;9.100;2024-01-30T11:38:54;17.33;;;9.23;;
14118;SDS011;7138;49.246;9.100;2024-01-30T11:41:21;15.27;;;9.13;;
14118;SDS011;7138;49.246;9.100;2024-01-30T11:43:51;14.70;;;10.18;;
14118;SDS011;7138;49.246;9.100;2024-01-30T11:46:17;15.70;;;10.23;;
14118;SDS011;7138;49.246;9.100;2024-01-30T11:48:43;16.27;;;10.30;;
14118;SDS011;7138;49.246;9.100;2024-01-30T11:51:09;17.73;;;10.93;;
14118;SDS011;7138;49.246;9.100;2024-01-30T11:53:38;16.25;;;10.60;;
14118;SDS011;7138;49.246;9.100;2024-01-30T11:56:05;15.02;;;10.15;;
14118;SDS011;7138;49.246;9.100;2024-01-30T11:58:33;14.40;;;9.80;;
14118;SDS011;7138;49.246;9.100;2024-01-30T12:00:59;15.38;;;9.00;;
14118;SDS011;7138;49.246;9.100;2024-01-30T12:03:25;12.73;;;8.02;;
14118;SDS011;7138;49.246;9.100;2024-01-30T12:05:55;12.75;;;8.38;;
14118;SDS011;7138;49.246;9.100;2024-01-30T12:08:22;10.95;;;7.47;;
14118;SDS011;7138;49.246;9.100;2024-01-30T12:10:54;15.10;;;8.07;;
14118;SDS011;7138;49.246;9.100;2024-01-30T12:13:22;10.70;;;7.25;;
14118;SDS011;7138;49.246;9.100;2024-01-30T12:15:50;12.82;;;7.55;;
14118;SDS011;7138;49.246;9.100;2024-01-30T12:18:18;12.88;;;8.23;;
14118;SDS011;7138;49.246;9.100;2024-01-30T12:20:44;10.20;;;7.00;;
14118;SDS011;7138;49.246;9.100;2024-01-30T12:23:11;11.80;;;7.82;;
14118;SDS011;7138;49.246;9.100;2024-01-30T12:25:37;12.68;;;8.23;;
14118;SDS011;7138;49.246;9.100;2024-01-30T12:28:03;14.80;;;8.73;;
14118;SDS011;7138;49.246;9.100;2024-01-30T12:30:30;12.30;;;7.93;;
14118;SDS011;7138;49.246;9.100;2024-01-30T12:32:58;10.80;;;7.35;;
14118;SDS011;7138;49.246;9.100;2024-01-30T12:35:25;10.88;;;7.00;;
14118;SDS011;7138;49.246;9.100;2024-01-30T12:37:51;10.18;;;6.28;;
14118;SDS011;7138;49.246;9.100;2024-01-30T12:40:17;11.25;;;7.25;;
14118;SDS011;7138;49.246;9.100;2024-01-30T12:42:45;11.07;;;6.40;;
14118;SDS011;7138;49.246;9.100;2024-01-30T12:45:15;10.40;;;6.57;;
14118;SDS011;7138;49.246;9.100;2024-01-30T12:47:41;14.45;;;9.13;;
14118;SDS011;7138;49.246;9.100;2024-01-30T12:50:08;16.05;;;10.10;;
14118;SDS011;7138;49.246;9.100;2024-01-30T12:52:35;15.23;;;9.25;;
14118;SDS011;7138;49.246;9.100;2024-01-30T12:55:02;12.45;;;7.57;;
14118;SDS011;7138;49.246;9.100;2024-01-30T12:57:29;13.93;;;9.10;;
14118;SDS011;7138;49.246;9.100;2024-01-30T12:59:55;12.65;;;8.07;;
14118;SDS011;7138;49.246;9.100;2024-01-30T13:02:21;13.57;;;7.70;;
14118;SDS011;7138;49.246;9.100;2024-01-30T13:04:47;12.63;;;7.30;;
14118;SDS011;7138;49.246;9.100;2024-01-30T13:07:15;14.60;;;8.13;;
14118;SDS011;7138;49.246;9.100;2024-01-30T13:09:40;11.10;;;7.75;;
14118;SDS011;7138;49.246;9.100;2024-01-30T13:12:06;16.42;;;8.90;;
14118;SDS011;7138;49.246;9.100;2024-01-30T13:14:33;14.18;;;9.80;;
14118;SDS011;7138;49.246;9.100;2024-01-30T13:16:59;14.55;;;9.68;;
14118;SDS011;7138;49.246;9.100;2024-01-30T13:19:25;14.23;;;9.55;;
14118;SDS011;7138;49.246;9.100;2024-01-30T13:21:51;14.93;;;9.93;;
14118;SDS011;7138;49.246;9.100;2024-01-30T13:24:18;14.73;;;10.05;;
14118;SDS011;7138;49.246;9.100;2024-01-30T13:26:46;15.60;;;9.82;;
14118;SDS011;7138;49.246;9.100;2024-01-30T13:29:13;16.80;;;9.75;;
14118;SDS011;7138;49.246;9.100;2024-01-30T13:31:39;17.10;;;9.40;;
14118;SDS011;7138;49.246;9.100;2024-01-30T13:34:05;16.05;;;9.05;;
14118;SDS011;7138;49.246;9.100;2024-01-30T13:36:34;14.15;;;8.52;;
14118;SDS011;7138;49.246;9.100;2024-01-30T13:39:00;16.88;;;9.18;;
14118;SDS011;7138;49.246;9.100;2024-01-30T13:41:27;52.17;;;22.33;;
14118;SDS011;7138;49.246;9.100;2024-01-30T13:43:54;28.80;;;13.38;;
14118;SDS011;7138;49.246;9.100;2024-01-30T13:46:20;17.33;;;9.95;;
14118;SDS011;7138;49.246;9.100;2024-01-30T13:48:46;17.30;;;8.80;;
14118;SDS011;7138;49.246;9.100;2024-01-30T13:51:12;13.75;;;7.90;;
14118;SDS011;7138;49.246;9.100;2024-01-30T13:53:38;11.45;;;7.03;;
14118;SDS011;7138;49.246;9.100;2024-01-30T13:56:04;14.32;;;7.95;;
14118;SDS011;7138;49.246;9.100;2024-01-30T13:58:32;14.07;;;8.88;;
14118;SDS011;7138;49.246;9.100;2024-01-30T14:00:58;15.98;;;10.18;;
14118;SDS011;7138;49.246;9.100;2024-01-30T14:03:24;14.48;;;8.98;;
14118;SDS011;7138;49.246;9.100;2024-01-30T14:05:50;13.63;;;8.25;;
14118;SDS011;7138;49.246;9.100;2024-01-30T14:08:16;15.35;;;8.05;;
14118;SDS011;7138;49.246;9.100;2024-01-30T14:10:42;16.20;;;8.57;;
14118;SDS011;7138;49.246;9.100;2024-01-30T14:13:08;11.07;;;7.30;;
14118;SDS011;7138;49.246;9.100;2024-01-30T14:15:35;12.95;;;7.28;;
14118;SDS011;7138;49.246;9.100;2024-01-30T14:18:01;14.18;;;7.72;;
14118;SDS011;7138;49.246;9.100;2024-01-30T14:20:27;19.42;;;9.48;;
14118;SDS011;7138;49.246;9.100;2024-01-30T14:22:53;21.77;;;9.73;;
14118;SDS011;7138;49.246;9.100;2024-01-30T14:25:20;15.40;;;8.23;;
14118;SDS011;7138;49.246;9.100;2024-01-30T14:27:46;16.63;;;9.57;;
14118;SDS011;7138;49.246;9.100;2024-01-30T14:30:12;19.13;;;11.50;;
14118;SDS011;7138;49.246;9.100;2024-01-30T14:32:39;18.27;;;11.35;;
14118;SDS011;7138;49.246;9.100;2024-01-30T14:35:07;28.33;;;13.55;;
14118;SDS011;7138;49.246;9.100;2024-01-30T14:37:34;27.30;;;11.95;;
14118;SDS011;7138;49.246;9.100;2024-01-30T14:40:00;31.95;;;13.05;;
14118;SDS011;7138;49.246;9.100;2024-01-30T14:42:25;27.05;;;12.32;;
14118;SDS011;7138;49.246;9.100;2024-01-30T14:44:52;33.72;;;14.27;;
14118;SDS011;7138;49.246;9.100;2024-01-30T14:47:19;28.30;;;12.52;;